Time;durP1;ratioP1;P1;durP2;ratioP2;P2;SDS_P1;SDS_P2;PMS_P1;PMS_P2;Temp;Humidity;BMP_temperature;BMP_pressure;BME280_temperature;BME280_humidity;BME280_pressure;Samples;Min_cycle;Max_cycle;Signal;HPM_P1;HPM_P2
2022/11/29 00:01:43;;;;;;;19.90;15.13;;;10.00;99.90;;;10.28;90.03;101322.00;5116941;28;20495;-75
2022/11/29 00:04:11;;;;;;;23.02;16.48;;;10.00;99.90;;;10.15;90.21;101284.06;5116419;28;20067;-75
2022/11/29 00:06:40;;;;;;;26.63;17.40;;;10.10;99.90;;;10.35;90.57;101311.47;5116270;28;20079;-74
2022/11/29 00:09:12;;;;;;;26.33;20.45;;;10.10;99.90;;;10.48;90.66;101322.94;5116507;28;20044;-75
2022/11/29 00:14:29;;;;;;;26.27;18.65;;;10.30;99.90;;;10.55;92.07;101322.97;5116221;28;20077;-73
2022/11/29 00:17:03;;;;;;;32.17;18.42;;;10.30;99.90;;;10.34;91.38;101314.97;5097995;28;20465;-73
2022/11/29 00:19:32;;;;;;;32.20;17.85;;;10.20;99.90;;;9.95;90.81;101268.06;5098013;28;20418;-73
2022/11/29 00:22:02;;;;;;;24.67;18.63;;;10.20;99.90;;;10.17;90.69;101329.00;5097885;28;20083;-73
2022/11/29 00:24:31;;;;;;;24.53;17.83;;;10.00;99.90;;;9.95;90.87;101299.78;5115962;28;20035;-73
2022/11/29 00:27:00;;;;;;;33.55;17.95;;;9.90;99.90;;;9.99;90.74;101317.44;5115768;28;20273;-73
2022/11/29 00:29:30;;;;;;;39.55;16.88;;;9.80;99.90;;;9.87;91.31;101311.22;5115862;28;20122;-73
2022/11/29 00:32:00;;;;;;;45.60;15.07;;;9.70;99.90;;;9.93;91.87;101321.78;5116338;28;20412;-73
2022/11/29 00:34:28;;;;;;;21.58;16.33;;;9.60;99.90;;;9.82;91.99;101312.94;5116864;28;20433;-73
2022/11/29 00:36:57;;;;;;;34.33;13.98;;;9.70;99.90;;;8.93;90.85;101196.19;5097846;28;20040;-73
2022/11/29 00:39:25;;;;;;;30.48;15.23;;;9.50;99.90;;;9.57;90.69;101322.47;5116884;28;20579;-73
2022/11/29 00:41:54;;;;;;;27.75;14.75;;;9.30;99.90;;;9.53;90.85;101322.41;5117238;28;20062;-73
2022/11/29 00:44:22;;;;;;;33.15;13.88;;;9.20;99.90;;;9.49;91.30;101326.81;5115770;28;20062;-73
2022/11/29 00:46:50;;;;;;;21.60;14.00;;;9.20;99.90;;;9.48;91.25;101332.06;5115641;28;20062;-72
2022/11/29 00:49:20;;;;;;;31.92;14.98;;;9.20;99.90;;;9.32;91.81;101293.22;5116910;28;20048;-74
2022/11/29 00:51:49;;;;;;;16.80;15.00;;;9.30;99.90;;;9.52;91.78;101339.16;5115824;28;20134;-73
2022/11/29 00:54:17;;;;;;;18.63;14.25;;;9.30;99.90;;;9.51;92.26;101335.63;5115412;28;20292;-73
2022/11/29 00:56:46;;;;;;;16.23;14.40;;;9.30;99.90;;;9.59;92.03;101338.31;5115952;28;20047;-73
2022/11/29 00:59:14;;;;;;;24.75;14.85;;;9.40;99.90;;;9.39;92.07;101295.91;5116203;28;20039;-73
2022/11/29 01:01:43;;;;;;;19.05;15.73;;;9.40;99.90;;;9.32;92.31;101291.47;5115234;28;20031;-73
2022/11/29 01:04:11;;;;;;;20.70;15.55;;;9.40;99.90;;;9.59;92.24;101339.22;5115164;28;20047;-73
2022/11/29 01:06:41;;;;;;;19.05;15.45;;;9.40;99.90;;;9.66;92.42;101346.28;5115306;28;20070;-74
2022/11/29 01:09:09;;;;;;;22.80;15.33;;;9.40;99.90;;;9.61;92.23;101342.75;5115052;28;20451;-73
2022/11/29 01:11:38;;;;;;;80.97;17.30;;;9.40;99.90;;;9.60;91.97;101348.88;5096902;28;20774;-73
2022/11/29 01:14:06;;;;;;;33.25;16.27;;;9.40;99.90;;;9.44;92.39;101320.63;5115431;28;20143;-73
2022/11/29 01:16:35;;;;;;;17.33;14.95;;;9.40;99.90;;;9.72;92.00;101359.53;5114872;28;20118;-73
2022/11/29 01:19:06;;;;;;;16.70;14.35;;;9.50;99.90;;;9.76;92.15;101348.13;5096440;28;20043;-73
2022/11/29 01:21:34;;;;;;;18.75;14.52;;;9.60;99.90;;;9.82;92.68;101353.44;5114921;28;20042;-73
2022/11/29 01:24:05;;;;;;;59.00;16.52;;;9.60;99.90;;;9.79;92.73;101352.56;5096769;28;20036;-73
2022/11/29 01:26:33;;;;;;;27.67;15.82;;;9.60;99.90;;;9.68;92.08;101338.38;5114735;28;20487;-74
2022/11/29 01:29:02;;;;;;;22.70;14.57;;;9.60;99.90;;;9.64;92.15;101353.31;5114676;28;20036;-74
2022/11/29 01:31:34;;;;;;;25.60;14.60;;;9.50;99.90;;;9.41;91.22;101322.31;5096573;28;20051;-73
2022/11/29 01:34:06;;;;;;;16.58;13.02;;;9.30;99.90;;;9.25;90.69;101313.44;5114470;28;20047;-73
2022/11/29 01:36:35;;;;;;;16.80;14.55;;;9.30;99.90;;;9.36;90.83;101348.72;5114601;28;20039;-73
2022/11/29 01:39:06;;;;;;;37.97;15.13;;;9.20;99.90;;;9.33;90.94;101350.44;5096455;28;20044;-73
2022/11/29 01:41:37;;;;;;;17.50;13.88;;;9.10;99.90;;;9.43;91.28;101355.78;5114841;28;20127;-74
2022/11/29 01:44:28;;;;;;;20.23;14.23;;;9.20;99.90;;;9.35;91.14;101333.72;5114760;28;20393;-73
2022/11/29 01:46:56;;;;;;;;;;;9.30;99.90;;;9.24;91.82;101309.00;5114849;28;20047;-74
2022/11/29 01:49:29;;;;;;;16.83;13.57;;;9.30;99.90;;;9.26;90.81;101357.41;5114524;28;19919;-74
2022/11/29 01:52:03;;;;;;;16.73;12.60;;;9.20;99.90;;;9.24;89.83;101371.47;5114677;28;20122;-73
2022/11/29 01:54:38;;;;;;;16.85;13.90;;;9.00;99.90;;;9.03;90.21;101340.50;5096113;28;20043;-74
2022/11/29 01:57:09;;;;;;;19.67;15.25;;;9.00;99.90;;;9.16;91.31;101366.13;5114621;28;20046;-73
2022/11/29 01:59:43;;;;;;;23.23;13.45;;;9.00;99.90;;;9.08;91.19;101370.44;5114651;28;20043;-73
2022/11/29 02:02:16;;;;;;;18.13;13.63;;;8.90;99.90;;;8.43;90.96;101256.38;5114327;28;20036;-73
2022/11/29 02:04:46;;;;;;;19.73;14.00;;;8.90;99.90;;;9.03;90.82;101367.78;5114314;28;20393;-74
2022/11/29 02:07:15;;;;;;;33.65;14.75;;;8.90;99.90;;;9.04;90.13;101374.81;5114076;28;20090;-74
2022/11/29 02:09:45;;;;;;;35.05;13.90;;;8.90;99.90;;;8.77;90.21;101336.69;5114055;28;20100;-73
2022/11/29 02:12:23;;;;;;;26.60;14.57;;;8.80;99.90;;;9.05;90.72;101375.69;5113927;28;20046;-73
2022/11/29 02:15:08;;;;;;;29.73;14.35;;;8.80;99.90;;;8.94;90.90;101377.34;5114079;28;20051;-73
2022/11/29 02:17:51;;;;;;;28.70;14.48;;;8.80;99.90;;;8.26;90.65;101262.34;5113852;28;20043;-73
2022/11/29 02:21:22;;;;;;;38.08;15.32;;;8.80;99.90;;;8.94;90.89;101383.50;5113373;28;20485;-73
2022/11/29 02:24:42;;;;;;;31.63;14.52;;;8.80;99.90;;;8.91;91.48;101385.22;5095759;28;20043;-73
2022/11/29 02:27:56;;;;;;;46.78;14.60;;;8.70;99.90;;;8.69;90.99;101351.59;5095680;28;20139;-73
2022/11/29 02:30:55;;;;;;;48.78;15.40;;;8.70;99.90;;;8.93;91.07;101391.38;5111935;28;20059;-73
2022/11/29 02:34:07;;;;;;;17.02;13.43;;;8.70;99.90;;;8.86;91.87;101398.38;5114168;28;20039;-73
2022/11/29 02:36:52;;;;;;;29.90;15.07;;;8.70;99.90;;;8.84;92.22;101405.38;5093989;28;20059;-73
2022/11/29 02:40:10;;;;;;;42.75;16.08;;;8.70;99.90;;;8.71;92.63;101369.16;5113591;28;20070;-73
2022/11/29 02:43:12;;;;;;;23.85;15.55;;;8.70;99.90;;;8.83;92.14;101395.69;5113722;28;20039;-74
2022/11/29 02:46:07;;;;;;;35.30;15.48;;;8.70;99.90;;;8.83;91.73;101411.50;5113631;28;20043;-73
2022/11/29 02:48:56;;;;;;;39.55;14.38;;;8.70;99.90;;;8.86;91.68;101416.84;5113421;28;20036;-73
2022/11/29 02:51:38;;;;;;;30.38;14.70;;;8.70;99.90;;;6.16;91.02;100949.19;5113429;28;20097;-73
2022/11/29 02:54:16;;;;;;;19.92;13.27;;;8.70;99.90;;;8.57;91.88;101391.00;5113545;28;20032;-74
2022/11/29 02:56:53;;;;;;;24.65;12.90;;;8.60;99.90;;;8.10;91.60;101320.09;5113693;28;20044;-73
2022/11/29 02:59:41;;;;;;;54.65;14.18;;;8.50;99.90;;;8.64;91.72;101413.91;5113599;28;20063;-73
2022/11/29 03:02:23;;;;;;;23.00;13.25;;;8.40;99.90;;;8.65;91.54;101421.84;5095314;28;20435;-74
2022/11/29 03:05:03;;;;;;;35.97;13.88;;;8.40;99.90;;;8.52;91.03;101419.91;5113624;28;20446;-73
2022/11/29 03:07:44;;;;;;;30.60;14.52;;;8.40;99.90;;;8.64;91.39;101427.09;5113322;28;20040;-73
2022/11/29 03:10:22;;;;;;;;;;;8.40;99.90;;;8.60;91.43;101422.66;5095774;28;20455;-74
2022/11/29 03:12:53;;;;;;;20.38;12.85;;;8.40;99.90;;;8.51;91.47;101414.63;5113246;28;19923;-73
2022/11/29 03:15:30;;;;;;;23.10;14.23;;;8.40;99.90;;;8.47;91.04;101404.91;5113481;28;20055;-73
2022/11/29 03:18:13;;;;;;;16.00;14.20;;;8.40;99.90;;;8.57;91.33;101428.78;5095313;28;20520;-75
2022/11/29 03:20:58;;;;;;;35.47;12.70;;;8.40;99.90;;;8.25;91.67;101374.75;5113261;28;20036;-74
2022/11/29 03:23:33;;;;;;;15.25;13.63;;;8.40;99.90;;;8.53;91.46;101436.63;5113327;28;20064;-73
2022/11/29 03:26:08;;;;;;;16.45;13.40;;;8.40;99.90;;;7.72;91.16;101341.50;5095297;28;20150;-73
2022/11/29 03:28:43;;;;;;;30.65;14.68;;;8.30;99.90;;;8.56;90.72;101440.19;5113499;28;20145;-74
2022/11/29 03:31:21;;;;;;;15.35;13.02;;;8.30;99.90;;;8.52;91.08;101442.75;5113394;28;20058;-74
2022/11/29 03:33:55;;;;;;;14.40;13.00;;;8.30;99.90;;;8.11;91.59;101369.28;5098872;28;20055;-73
2022/11/29 03:36:36;;;;;;;16.45;13.52;;;8.30;99.90;;;8.58;91.31;101443.72;5116937;28;20477;-73
2022/11/29 03:39:11;;;;;;;22.52;13.20;;;8.30;99.90;;;8.11;91.49;101385.09;5117161;28;20096;-74
2022/11/29 03:41:49;;;;;;;30.58;13.95;;;8.40;99.90;;;8.55;91.38;101456.00;5117042;28;20047;-73
2022/11/29 03:44:24;;;;;;;17.67;15.27;;;8.30;99.90;;;8.48;91.58;101451.53;5116824;28;20094;-73
2022/11/29 03:46:58;;;;;;;28.48;14.88;;;8.30;99.90;;;8.53;91.61;101448.06;5117021;28;20401;-73
2022/11/29 03:49:33;;;;;;;16.73;14.00;;;8.30;99.90;;;8.59;91.62;101460.44;5098698;28;20074;-73
2022/11/29 03:52:15;;;;;;;45.45;15.13;;;8.40;99.90;;;8.51;91.50;101444.53;5116697;28;20097;-73
2022/11/29 03:55:15;;;;;;;19.73;13.98;;;8.30;99.90;;;8.10;91.29;101425.47;5116845;28;20050;-74
2022/11/29 03:57:51;;;;;;;18.40;13.83;;;8.40;99.90;;;8.51;91.12;101460.34;5116523;28;20039;-74
2022/11/29 04:00:21;;;;;;;20.50;14.88;;;8.30;99.90;;;8.43;90.97;101472.53;5116405;28;20071;-74
2022/11/29 04:03:27;;;;;;;19.98;16.15;;;8.30;99.90;;;8.49;91.08;101466.47;5116647;28;20469;-73
2022/11/29 04:06:19;;;;;;;19.67;14.75;;;8.20;99.90;;;8.43;91.02;101469.00;5072127;28;20055;-74
2022/11/29 04:09:29;;;;;;;19.88;15.18;;;8.30;99.90;;;8.41;90.94;101457.56;5116291;28;20039;-73
2022/11/29 04:13:09;;;;;;;18.95;14.65;;;8.30;99.90;;;8.41;90.88;101460.19;5098306;28;20048;-74
2022/11/29 04:16:34;;;;;;;17.17;14.05;;;8.30;99.90;;;8.56;91.09;101478.84;5098127;28;20073;-74
2022/11/29 04:19:59;;;;;;;21.50;15.60;;;8.30;99.90;;;8.38;91.12;101473.34;5074357;28;20472;-74
2022/11/29 04:23:45;;;;;;;31.10;13.85;;;8.30;99.90;;;7.80;90.42;101482.94;5116199;28;20089;-74
2022/11/29 04:26:59;;;;;;;15.68;13.27;;;7.70;99.90;;;7.90;91.61;101481.34;5020220;28;20060;-74
2022/11/29 04:29:51;;;;;;;20.15;14.15;;;7.60;99.90;;;7.93;91.58;101478.78;4985512;28;20046;-74
2022/11/29 04:33:01;;;;;;;16.85;13.05;;;7.70;99.90;;;7.94;92.35;101478.78;5115842;28;20035;-74
2022/11/29 04:35:52;;;;;;;28.23;14.32;;;7.80;99.90;;;7.96;92.39;101478.81;5116044;28;20443;-75
2022/11/29 04:39:16;;;;;;;16.63;12.90;;;7.90;99.90;;;8.18;92.28;101489.72;5115688;28;20501;-75
2022/11/29 04:42:22;;;;;;;19.95;13.35;;;8.00;99.90;;;7.62;92.06;101401.03;5115654;28;20127;-75
2022/11/29 04:45:15;;;;;;;19.67;14.68;;;8.00;99.90;;;7.36;92.13;101351.44;5115685;28;20434;-75
2022/11/29 04:48:03;;;;;;;16.08;14.38;;;8.00;99.90;;;8.23;92.78;101502.94;5115750;28;20485;-75
2022/11/29 04:50:48;;;;;;;22.67;12.63;;;8.00;99.90;;;7.96;91.91;101434.91;5115557;28;20054;-75
2022/11/29 04:53:42;;;;;;;19.73;15.43;;;8.00;99.90;;;8.32;92.02;101486.44;5115773;28;20036;-75
2022/11/29 04:56:23;;;;;;;17.95;15.15;;;8.10;99.90;;;8.45;92.78;101510.34;5097464;28;20079;-74
2022/11/29 04:59:02;;;;;;;17.83;14.82;;;8.20;99.90;;;8.33;93.20;101486.44;5116280;28;20047;-75
2022/11/29 05:01:46;;;;;;;18.65;13.52;;;8.20;99.90;;;8.46;92.87;101505.97;5116504;28;20052;-75
2022/11/29 05:04:22;;;;;;;27.95;14.00;;;8.30;99.90;;;8.53;92.77;101513.09;5123391;28;20054;-74
2022/11/29 05:07:06;;;;;;;23.60;14.30;;;8.30;99.90;;;8.58;92.39;101514.03;5119581;28;20043;-75
2022/11/29 05:09:57;;;;;;;18.92;15.40;;;8.30;99.90;;;8.23;92.58;101456.41;5117951;28;20044;-75
2022/11/29 05:12:34;;;;;;;18.55;15.73;;;8.40;99.90;;;8.45;92.84;101486.63;5115915;28;20062;-74
2022/11/29 05:15:32;;;;;;;23.40;15.93;;;8.50;99.90;;;8.71;93.27;101540.59;5115554;28;20122;-74
2022/11/29 05:18:12;;;;;;;22.20;17.30;;;8.50;99.90;;;8.65;92.91;101500.09;5117060;28;20284;-75
2022/11/29 05:20:51;;;;;;;29.75;17.65;;;8.60;99.90;;;8.51;92.65;101496.38;5117515;28;20067;-75
2022/11/29 05:23:45;;;;;;;20.40;17.33;;;8.60;99.90;;;8.84;93.24;101541.66;5098358;28;20071;-75
2022/11/29 05:26:20;;;;;;;20.17;17.25;;;8.60;99.90;;;8.91;92.99;101522.38;5115705;28;20067;-75
2022/11/29 05:28:58;;;;;;;26.40;18.38;;;8.70;99.90;;;8.89;93.20;101513.56;5114998;28;20412;-75
2022/11/29 05:31:50;;;;;;;26.52;19.33;;;8.80;99.90;;;8.99;92.98;101536.56;5115159;28;20040;-75
2022/11/29 05:35:24;;;;;;;24.70;19.67;;;8.80;99.90;;;8.94;93.33;101538.28;5096724;28;20445;-75
2022/11/29 05:37:56;;;;;;;23.00;19.58;;;8.70;99.90;;;8.72;93.31;101510.72;5070394;28;20048;-75
2022/11/29 05:40:46;;;;;;;49.25;25.55;;;8.80;99.90;;;8.19;93.46;101396.63;5115022;28;20073;-76
2022/11/29 05:43:59;;;;;;;40.53;27.70;;;8.90;99.90;;;9.03;93.76;101560.38;5114854;28;20042;-75
2022/11/29 05:46:37;;;;;;;29.80;24.48;;;8.90;99.90;;;9.14;93.80;101563.16;5068760;28;20100;-75
2022/11/29 05:49:23;;;;;;;42.95;24.80;;;9.00;99.90;;;8.97;93.29;101546.22;5114909;28;20040;-75
2022/11/29 05:52:09;;;;;;;31.38;21.35;;;8.80;99.90;;;8.83;93.68;101535.50;5114469;28;20040;-75
2022/11/29 05:54:44;;;;;;;45.15;25.60;;;8.70;99.90;;;9.05;93.25;101571.84;5113681;28;20439;-75
2022/11/29 05:57:27;;;;;;;26.98;24.13;;;8.80;99.90;;;8.73;93.60;101522.19;5114370;28;20393;-76
2022/11/29 05:59:57;;;;;;;30.55;25.85;;;8.80;99.90;;;9.15;94.15;101578.13;5096347;28;20044;-74
2022/11/29 06:02:47;;;;;;;41.08;25.60;;;8.90;99.90;;;9.17;93.88;101571.13;5114715;28;20046;-75
2022/11/29 06:05:25;;;;;;;26.83;23.73;;;9.00;99.90;;;9.10;93.74;101570.16;5096202;28;20139;-75
2022/11/29 06:08:03;;;;;;;31.65;25.08;;;8.90;99.90;;;8.96;93.60;101547.97;5114388;28;20164;-75
2022/11/29 06:10:38;;;;;;;53.22;26.02;;;8.90;99.90;;;8.95;93.57;101540.03;5114079;28;20452;-76
2022/11/29 06:13:18;;;;;;;31.55;25.38;;;9.00;99.90;;;8.64;93.62;101519.38;5114241;28;20100;-75
2022/11/29 06:16:13;;;;;;;29.05;24.67;;;9.00;99.90;;;9.08;93.71;101605.28;5095950;28;20048;-75
2022/11/29 06:19:31;;;;;;;45.15;24.40;;;8.90;99.90;;;9.09;93.48;101600.06;5113903;28;20093;-75
2022/11/29 06:22:19;;;;;;;35.45;25.75;;;8.90;99.90;;;8.91;93.63;101583.06;5096029;28;20134;-75
2022/11/29 06:25:08;;;;;;;27.27;24.35;;;8.90;99.90;;;9.00;93.92;101604.31;5113825;28;20044;-76
2022/11/29 06:27:56;;;;;;;26.30;22.50;;;8.90;99.90;;;8.98;93.53;101599.00;5114011;28;20063;-75
2022/11/29 06:30:30;;;;;;;55.45;24.20;;;8.70;99.90;;;8.97;92.77;101597.25;5114242;28;20108;-76
2022/11/29 06:33:08;;;;;;;38.60;23.20;;;8.80;99.90;;;8.96;92.84;101602.50;5114018;28;20054;-75
2022/11/29 06:35:45;;;;;;;29.48;22.83;;;8.70;99.90;;;8.83;92.91;101577.69;5113622;28;20114;-75
2022/11/29 06:38:21;;;;;;;29.15;24.05;;;8.80;99.90;;;8.85;92.71;101626.09;5113730;28;20063;-75
2022/11/29 06:40:50;;;;;;;36.40;24.38;;;8.70;99.90;;;8.79;93.29;101609.25;5114178;28;20104;-75
2022/11/29 06:43:26;;;;;;;36.95;24.15;;;8.70;99.90;;;8.91;93.29;101617.38;5113497;28;20039;-76
2022/11/29 06:45:59;;;;;;;61.80;25.13;;;8.70;99.90;;;8.84;93.35;101618.16;5114039;28;20044;-75
2022/11/29 06:48:34;;;;;;;26.45;23.58;;;8.70;99.90;;;7.97;93.42;101478.84;5113882;28;20040;-76
2022/11/29 06:51:12;;;;;;;32.20;22.92;;;8.70;99.90;;;8.81;92.97;101618.09;5113457;28;20044;-76
2022/11/29 06:53:50;;;;;;;43.55;22.70;;;8.60;99.90;;;8.02;92.59;101552.66;5113503;28;20104;-76
2022/11/29 06:56:26;;;;;;;45.95;23.38;;;8.40;99.90;;;8.11;93.83;101640.66;5113599;28;20123;-76
2022/11/29 06:59:04;;;;;;;25.60;22.65;;;7.90;99.90;;;7.23;94.27;101498.59;5095637;28;20443;-75
2022/11/29 07:01:43;;;;;;;54.40;23.95;;;7.80;99.90;;;7.53;94.46;101571.09;5113299;28;20048;-76
2022/11/29 07:04:51;;;;;;;31.27;22.55;;;7.70;99.90;;;7.21;95.57;101604.66;5113268;28;20115;-75
2022/11/29 07:07:23;;;;;;;26.38;23.27;;;7.30;99.90;;;4.91;95.45;101160.16;5099069;28;20051;-75
2022/11/29 07:09:58;;;;;;;25.65;22.95;;;7.30;99.90;;;7.83;95.70;101648.91;5117504;28;20047;-76
2022/11/29 07:12:27;;;;;;;31.85;23.92;;;7.50;99.90;;;7.99;96.14;101664.13;5117322;28;20454;-75
2022/11/29 07:14:56;;;;;;;31.08;24.90;;;7.70;99.90;;;7.65;96.16;101597.63;5098977;28;20040;-75
2022/11/29 07:17:33;;;;;;;26.85;24.05;;;7.90;99.90;;;8.23;96.11;101667.22;5099226;28;20063;-76
2022/11/29 07:20:08;;;;;;;26.52;23.73;;;8.00;99.90;;;8.14;95.52;101632.81;5117349;28;20063;-77
2022/11/29 07:22:54;;;;;;;34.20;26.00;;;8.10;99.90;;;7.83;95.42;101588.34;5099051;28;20044;-76
2022/11/29 07:25:35;;;;;;;29.17;25.70;;;8.20;99.90;;;8.16;95.36;101651.28;5117725;28;20039;-77
2022/11/29 07:28:18;;;;;;;31.55;25.55;;;8.10;99.90;;;8.16;94.87;101660.06;5099273;28;20400;-84
2022/11/29 07:30:56;;;;;;;37.00;26.00;;;8.10;99.90;;;7.96;94.39;101635.09;5117150;28;20043;-77
2022/11/29 07:33:33;;;;;;;26.83;24.05;;;8.00;99.90;;;8.02;94.35;101658.94;5099032;28;20076;-74
2022/11/29 07:36:12;;;;;;;26.77;24.08;;;7.90;99.90;;;8.21;94.01;101678.59;5098995;28;20081;-78
2022/11/29 07:39:00;;;;;;;30.58;22.23;;;7.90;99.90;;;7.94;93.14;101667.53;5116877;28;20486;-71
2022/11/29 07:41:37;;;;;;;44.03;23.83;;;7.80;99.90;;;7.89;92.90;101683.28;5098915;28;20044;-73
2022/11/29 07:44:13;;;;;;;26.63;23.17;;;7.70;99.90;;;7.93;93.38;101689.47;5116861;28;20170;-74
2022/11/29 07:46:41;;;;;;;24.23;21.73;;;7.70;99.90;;;7.90;93.78;101692.03;5116792;28;20055;-72
2022/11/29 07:49:10;;;;;;;24.48;21.98;;;7.70;99.90;;;7.89;93.63;101693.81;5116585;28;20047;-75
2022/11/29 07:51:38;;;;;;;28.25;24.63;;;7.70;99.90;;;7.78;93.94;101671.63;5116806;28;20096;-75
2022/11/29 07:54:10;;;;;;;27.88;22.63;;;7.70;99.90;;;7.78;94.25;101668.13;5116506;28;20149;-74
2022/11/29 07:56:42;;;;;;;25.00;22.30;;;7.80;99.90;;;7.95;94.11;101703.56;5116626;28;20397;-77
2022/11/29 07:59:11;;;;;;;24.98;22.23;;;7.70;99.90;;;7.37;94.28;101585.69;5116522;28;20050;-74
2022/11/29 08:01:41;;;;;;;24.60;22.02;;;7.80;99.90;;;7.44;93.41;101613.91;5116382;28;20489;-73
2022/11/29 08:04:09;;;;;;;25.38;22.88;;;7.80;99.90;;;8.12;93.39;101721.47;5116332;28;20039;-75
2022/11/29 08:06:38;;;;;;;26.55;22.67;;;7.80;99.90;;;8.05;93.41;101690.59;5116288;28;20048;-79
2022/11/29 08:09:08;;;;;;;39.53;23.90;;;7.90;99.90;;;8.11;93.37;101727.59;5116447;28;20443;-77
2022/11/29 08:11:36;;;;;;;27.77;24.83;;;7.90;99.90;;;8.15;93.28;101726.78;5116235;28;20462;-79
2022/11/29 08:14:05;;;;;;;25.42;22.50;;;8.00;99.90;;;8.17;94.03;101725.06;5116002;28;20093;-77
2022/11/29 08:16:34;;;;;;;28.15;23.83;;;8.00;99.90;;;8.32;94.08;101710.44;5116146;28;20442;-80
2022/11/29 08:19:02;;;;;;;49.75;25.40;;;8.10;99.90;;;8.27;93.65;101725.28;5115220;28;20093;-72
2022/11/29 08:21:31;;;;;;;42.35;26.67;;;8.10;99.90;;;8.19;94.04;101728.63;5115954;28;20100;-73
2022/11/29 08:23:59;;;;;;;44.92;25.00;;;8.10;99.90;;;7.27;93.87;101604.78;5115930;28;20036;-75
2022/11/29 08:26:29;;;;;;;31.45;25.20;;;7.90;99.90;;;7.84;94.80;101724.41;5116225;28;20392;-76
2022/11/29 08:28:59;;;;;;;35.63;24.17;;;7.70;99.90;;;7.90;94.77;101716.63;5116038;28;20097;-75
2022/11/29 08:31:27;;;;;;;29.55;25.38;;;7.80;99.90;;;7.78;94.80;101649.69;5115837;28;20043;-75
2022/11/29 08:33:56;;;;;;;26.83;24.13;;;8.00;99.90;;;8.34;95.12;101736.00;5115743;28;20049;-75
2022/11/29 08:36:25;;;;;;;29.40;26.20;;;8.10;99.90;;;8.33;95.37;101720.13;5115496;28;20040;-78
2022/11/29 08:38:54;;;;;;;27.88;24.98;;;8.20;99.90;;;8.16;95.48;101689.06;5115699;28;20043;-74
2022/11/29 08:41:36;;;;;;;30.02;25.95;;;8.30;99.90;;;8.37;95.63;101695.59;5097720;28;20061;-79
2022/11/29 08:44:05;;;;;;;29.92;26.42;;;8.40;99.90;;;8.72;95.55;101742.81;5115942;28;20047;-79
2022/11/29 08:49:19;;;;;;;33.63;26.02;;;8.60;99.90;;;8.70;95.47;101722.53;5097704;28;20452;-79
2022/11/29 08:51:48;;;;;;;30.88;27.33;;;8.70;99.90;;;8.81;94.51;101773.72;5115410;28;20044;-72
2022/11/29 08:54:15;;;;;;;33.42;26.65;;;8.70;99.90;;;8.16;94.65;101620.56;5115589;28;20130;-80
2022/11/29 08:56:45;;;;;;;30.10;26.60;;;8.80;99.90;;;8.23;94.92;101636.47;5115380;28;20474;-79
2022/11/29 08:59:34;;;;;;;29.45;26.23;;;8.80;99.90;;;8.64;94.77;101723.34;5115819;28;20047;-78
2022/11/29 09:02:02;;;;;;;90.35;26.77;;;8.80;99.90;;;8.93;94.81;101760.75;5097628;28;20046;-75
2022/11/29 09:04:30;;;;;;;34.13;25.08;;;8.80;99.90;;;9.04;94.84;101767.97;5115423;28;20043;-80
2022/11/29 09:06:59;;;;;;;41.55;25.13;;;8.90;99.90;;;9.03;95.06;101783.78;5115387;28;20520;-81
2022/11/29 09:09:27;;;;;;;49.60;25.45;;;8.80;99.90;;;9.02;95.08;101782.00;5115022;28;20074;-77
2022/11/29 09:11:57;;;;;;;36.95;24.63;;;8.80;99.90;;;8.89;95.10;101769.47;5115250;28;20126;-77
2022/11/29 09:14:25;;;;;;;56.43;25.47;;;8.80;99.90;;;8.79;95.38;101773.69;5115287;28;20158;-76
2022/11/29 09:16:54;;;;;;;50.50;26.95;;;8.70;99.90;;;7.60;95.54;101552.81;5114997;28;20052;-77
2022/11/29 09:19:23;;;;;;;145.88;29.33;;;8.80;99.90;;;8.67;96.60;101793.72;5115524;28;20051;-77
2022/11/29 09:21:51;;;;;;;35.70;26.60;;;8.50;99.90;;;8.82;97.07;101780.78;5097004;28;20461;-77
2022/11/29 09:24:20;;;;;;;26.58;23.48;;;8.70;99.90;;;8.46;96.96;101730.91;5114850;28;20126;-77
2022/11/29 09:26:48;;;;;;;139.45;27.77;;;8.60;99.90;;;8.51;96.62;101783.72;5115152;28;20451;-77
2022/11/29 09:29:18;;;;;;;70.93;24.15;;;8.50;99.90;;;8.60;99.04;101803.25;5095728;28;20097;-77
2022/11/29 09:31:47;;;;;;;122.88;28.48;;;8.30;99.90;;;8.23;99.87;101800.72;5115647;28;20094;-77
2022/11/29 09:34:17;;;;;;;39.92;27.98;;;8.10;99.90;;;7.83;100.00;101741.09;5115254;28;20627;-77
2022/11/29 09:36:46;;;;;;;86.20;28.55;;;7.90;99.90;;;8.26;100.00;101795.56;5115715;28;20070;-78
2022/11/29 09:39:15;;;;;;;34.00;25.23;;;8.00;99.90;;;8.47;100.00;101795.97;5116125;28;20077;-78
2022/11/29 09:42:12;;;;;;;37.60;26.70;;;8.20;99.90;;;8.56;100.00;101790.88;5116075;28;20378;-78
2022/11/29 09:44:53;;;;;;;35.97;27.23;;;8.40;99.90;;;8.70;100.00;101788.47;5115523;28;20118;-78
2022/11/29 09:47:59;;;;;;;40.42;27.63;;;8.50;99.90;;;8.71;100.00;101774.44;5115926;28;20040;-76
2022/11/29 09:50:34;;;;;;;41.00;28.55;;;8.70;99.90;;;8.83;100.00;101764.09;5115094;28;20051;-77
2022/11/29 09:53:33;;;;;;;53.63;28.67;;;8.90;99.90;;;9.26;100.00;101835.19;5115490;28;20118;-76
2022/11/29 09:56:12;;;;;;;42.10;27.60;;;9.00;99.90;;;9.19;100.00;101822.78;5115108;28;20031;-78
2022/11/29 09:58:47;;;;;;;47.85;27.67;;;9.00;99.90;;;9.41;100.00;101822.22;5114741;28;20489;-78
2022/11/29 10:01:23;;;;;;;74.13;29.90;;;9.20;99.90;;;9.18;100.00;101810.41;5114657;28;20122;-77
2022/11/29 10:03:54;;;;;;;55.05;27.42;;;9.20;99.90;;;9.00;100.00;101789.88;5114752;28;20085;-77
2022/11/29 10:06:28;;;;;;;35.15;25.15;;;9.00;99.90;;;9.41;100.00;101822.22;5114627;28;20096;-77
2022/11/29 10:09:02;;;;;;;29.73;24.55;;;9.10;99.90;;;9.58;100.00;101825.16;5114377;28;20074;-77
2022/11/29 10:11:38;;;;;;;96.43;28.45;;;9.30;99.90;;;9.32;99.97;101813.28;5114132;28;20059;-77
2022/11/29 10:14:14;;;;;;;33.42;25.25;;;9.30;99.90;;;9.03;100.00;101779.41;5113977;28;20048;-77
2022/11/29 10:16:50;;;;;;;43.85;27.27;;;9.10;99.90;;;9.56;100.00;101840.94;5113981;28;20036;-77
2022/11/29 10:19:26;;;;;;;31.60;25.38;;;9.30;99.90;;;9.43;100.00;101783.53;5113985;28;20042;-77
2022/11/29 10:22:02;;;;;;;37.70;22.67;;;9.50;99.90;;;9.50;100.00;101817.09;5114193;28;20101;-77
2022/11/29 10:24:33;;;;;;;31.48;22.95;;;9.40;99.90;;;9.27;100.00;101812.34;5114035;28;20449;-76
2022/11/29 10:27:02;;;;;;;40.35;24.63;;;9.30;99.90;;;9.67;100.00;101834.09;5113763;28;20043;-77
2022/11/29 10:29:31;;;;;;;36.25;25.50;;;9.40;99.90;;;9.54;100.00;101816.25;5113652;28;20050;-77
2022/11/29 10:32:04;;;;;;;105.07;26.70;;;9.50;99.90;;;9.65;100.00;101846.38;5095582;28;20067;-77
2022/11/29 10:34:38;;;;;;;74.55;27.13;;;9.50;99.90;;;9.42;100.00;101836.31;5113979;28;20049;-77
2022/11/29 10:37:13;;;;;;;28.25;24.08;;;9.20;99.90;;;9.60;100.00;101918.50;5113666;28;20063;-76
2022/11/29 10:39:46;;;;;;;32.95;25.25;;;9.40;99.90;;;9.91;100.00;101850.28;5113826;28;20040;-77
2022/11/29 10:45:15;;;;;;;36.85;27.23;;;9.60;99.90;;;10.01;100.00;101831.03;5113522;28;20074;-77
2022/11/29 10:47:47;;;;;;;37.13;25.27;;;9.80;99.90;;;9.94;100.00;101823.91;5113617;28;20457;-77
2022/11/29 10:50:20;;;;;;;30.30;24.42;;;9.90;99.90;;;10.25;100.00;101845.47;5114103;28;20047;-78
2022/11/29 10:52:48;;;;;;;54.38;26.25;;;10.00;99.90;;;10.19;99.81;101797.81;5113895;28;20067;-77
2022/11/29 10:55:20;;;;;;;30.88;25.35;;;10.20;99.90;;;10.28;99.19;101803.22;5095632;28;20067;-78
2022/11/29 10:58:18;;;;;;;31.45;24.25;;;10.30;99.90;;;10.43;98.93;101824.56;5113628;28;20404;-77
2022/11/29 11:00:56;;;;;;;33.58;24.42;;;10.40;99.90;;;10.46;98.47;101845.72;5113952;28;20067;-77
2022/11/29 11:03:32;;;;;;;38.20;24.23;;;10.20;99.90;;;10.40;98.43;101846.56;5113685;28;20104;-78
2022/11/29 11:06:09;;;;;;;30.58;24.90;;;10.20;99.90;;;10.28;98.49;101861.41;5113902;28;20107;-78
2022/11/29 11:08:41;;;;;;;29.17;24.15;;;10.20;99.90;;;10.42;98.60;101849.22;5095372;28;20093;-76